Time,TemperatureF,DewpointF,PressureIn,WindDirection,WindDirectionDegrees,WindSpeedMPH,WindSpeedGustMPH,Humidity,HourlyPrecipIn,Conditions,Clouds,dailyrainin,SoftwareType,DateUTC
2013-04-15 06:13:00,35.6,32.0,30.34,NNE,27,0.0,-999.0,85,-99.99,,,0.00,weatherlink.com 1.10,2013-04-15 10:13:00,
2013-04-15 06:31:00,35.7,31.0,30.34,NNE,27,0.0,-999.0,84,-99.99,,,0.00,weatherlink.com 1.10,2013-04-15 10:31:00,
2013-04-15 06:46:00,35.9,32.0,30.34,NNE,27,0.0,-999.0,84,-99.99,,,0.00,weatherlink.com 1.10,2013-04-15 10:46:00,
2013-04-15 07:02:00,36.2,32.0,30.34,NNE,27,0.0,-999.0,83,-99.99,,,0.00,weatherlink.com 1.10,2013-04-15 11:02:00,
2013-04-15 07:16:00,36.6,32.0,30.35,NNE,27,0.0,-999.0,83,-99.99,,,0.00,weatherlink.com 1.10,2013-04-15 11:16:00,
2013-04-15 07:32:00,37.1,32.0,30.35,NNE,27,0.0,-999.0,83,-99.99,,,0.00,weatherlink.com 1.10,2013-04-15 11:32:00,
2013-04-15 08:02:00,38.7,33.0,30.36,NNE,27,0.0,-999.0,81,-99.99,,,0.00,weatherlink.com 1.10,2013-04-15 12:02:00,
2013-04-15 08:17:00,39.6,34.0,30.37,NNE,27,0.0,-999.0,80,-99.99,,,0.00,weatherlink.com 1.10,2013-04-15 12:17:00,
2013-04-15 08:32:00,40.6,34.0,30.38,NNE,27,0.0,-999.0,78,-99.99,,,0.00,weatherlink.com 1.10,2013-04-15 12:32:00,
2013-04-15 08:47:00,41.4,33.0,30.38,NNE,26,0.0,-999.0,73,-99.99,,,0.00,weatherlink.com 1.10,2013-04-15 12:47:00,
2013-04-15 09:02:00,42.7,34.0,30.39,NNE,27,0.0,-999.0,70,-99.99,,,0.00,weatherlink.com 1.10,2013-04-15 13:02:00,
2013-04-15 09:17:00,44.2,34.0,30.39,NNE,27,0.0,-999.0,67,-99.99,,,0.00,weatherlink.com 1.10,2013-04-15 13:17:00,
2013-04-15 09:32:00,45.4,34.0,30.40,West,267,0.0,-999.0,64,-99.99,,,0.00,weatherlink.com 1.10,2013-04-15 13:32:00,
2013-04-15 09:48:00,46.0,33.0,30.39,West,271,0.0,-999.0,62,-99.99,,,0.00,weatherlink.com 1.10,2013-04-15 13:48:00,
2013-04-15 10:03:00,47.8,33.0,30.38,NE,36,0.0,-999.0,57,-99.99,,,0.00,weatherlink.com 1.10,2013-04-15 14:03:00,
2013-04-15 10:18:00,48.9,31.0,30.37,NE,36,0.0,-999.0,50,-99.99,,,0.00,weatherlink.com 1.10,2013-04-15 14:18:00,
2013-04-15 10:33:00,49.5,30.0,30.37,SSE,148,2.0,-999.0,48,-99.99,,,0.00,weatherlink.com 1.10,2013-04-15 14:33:00,
2013-04-15 10:48:00,49.6,31.0,30.37,South,190,0.0,-999.0,49,-99.99,,,0.00,weatherlink.com 1.10,2013-04-15 14:48:00,
2013-04-15 11:03:00,50.2,30.0,30.37,SE,144,1.0,-999.0,47,-99.99,,,0.00,weatherlink.com 1.10,2013-04-15 15:03:00,
2013-04-15 11:18:00,50.7,30.0,30.37,South,171,1.0,-999.0,46,-99.99,,,0.00,weatherlink.com 1.10,2013-04-15 15:18:00,
2013-04-15 11:33:00,51.6,31.0,30.36,South,180,2.0,-999.0,46,-99.99,,,0.00,weatherlink.com 1.10,2013-04-15 15:33:00,
2013-04-15 11:48:00,52.1,31.0,30.36,South,171,0.0,-999.0,45,-99.99,,,0.00,weatherlink.com 1.10,2013-04-15 15:48:00,
2013-04-15 12:04:00,52.6,31.0,30.36,South,189,0.0,-999.0,44,-99.99,,,0.00,weatherlink.com 1.10,2013-04-15 16:04:00,
2013-04-15 12:19:00,53.1,31.0,30.35,ESE,108,1.0,-999.0,43,-99.99,,,0.00,weatherlink.com 1.10,2013-04-15 16:19:00,
2013-04-15 12:34:00,53.7,32.0,30.35,SSE,153,2.0,-999.0,44,-99.99,,,0.00,weatherlink.com 1.10,2013-04-15 16:34:00,
2013-04-15 12:49:00,53.7,31.0,30.34,SSE,157,1.0,-999.0,43,-99.99,,,0.00,weatherlink.com 1.10,2013-04-15 16:49:00,
2013-04-15 13:04:00,54.2,32.0,30.34,NE,44,0.0,-999.0,43,-99.99,,,0.00,weatherlink.com 1.10,2013-04-15 17:04:00,
2013-04-15 13:19:00,55.0,32.0,30.34,ESE,117,0.0,-999.0,42,-99.99,,,0.00,weatherlink.com 1.10,2013-04-15 17:19:00,
2013-04-15 13:34:00,55.7,32.0,30.34,SE,135,0.0,-999.0,41,-99.99,,,0.00,weatherlink.com 1.10,2013-04-15 17:34:00,
2013-04-15 13:49:00,55.9,33.0,30.34,SSW,194,0.0,-999.0,42,-99.99,,,0.00,weatherlink.com 1.10,2013-04-15 17:49:00,
2013-04-15 14:04:00,56.2,33.0,30.33,SW,225,0.0,-999.0,42,-99.99,,,0.00,weatherlink.com 1.10,2013-04-15 18:04:00,
2013-04-15 14:19:00,56.8,33.0,30.33,SSE,159,1.0,-999.0,40,-99.99,,,0.00,weatherlink.com 1.10,2013-04-15 18:19:00,
2013-04-15 14:34:00,56.9,33.0,30.32,SSW,199,1.0,-999.0,40,-99.99,,,0.00,weatherlink.com 1.10,2013-04-15 18:34:00,
2013-04-15 14:50:00,56.8,33.0,30.32,SE,128,5.0,-999.0,40,-99.99,,,0.00,weatherlink.com 1.10,2013-04-15 18:50:00,
2013-04-15 15:05:00,57.6,34.0,30.32,SE,129,0.0,-999.0,41,-99.99,,,0.00,weatherlink.com 1.10,2013-04-15 19:05:00,
2013-04-15 15:20:00,57.5,34.0,30.31,SSE,157,0.0,-999.0,41,-99.99,,,0.00,weatherlink.com 1.10,2013-04-15 19:20:00,
2013-04-15 15:35:00,57.3,35.0,30.32,SSE,151,6.0,-999.0,43,-99.99,,,0.00,weatherlink.com 1.10,2013-04-15 19:35:00,
2013-04-15 15:50:00,57.6,36.0,30.32,SW,230,3.0,-999.0,44,-99.99,,,0.00,weatherlink.com 1.10,2013-04-15 19:50:00,
2013-04-15 16:05:00,57.3,35.0,30.31,SSE,153,2.0,-999.0,44,-99.99,,,0.00,weatherlink.com 1.10,2013-04-15 20:05:00,
2013-04-15 16:20:00,56.8,35.0,30.30,SSE,159,4.0,-999.0,45,-99.99,,,0.00,weatherlink.com 1.10,2013-04-15 20:20:00,
2013-04-15 16:35:00,57.0,36.0,30.30,ESE,118,2.0,-999.0,45,-99.99,,,0.00,weatherlink.com 1.10,2013-04-15 20:35:00,
2013-04-15 16:50:00,56.8,36.0,30.30,SSE,160,2.0,-999.0,46,-99.99,,,0.00,weatherlink.com 1.10,2013-04-15 20:50:00,
2013-04-15 17:05:00,57.6,36.0,30.31,ESE,121,0.0,-999.0,45,-99.99,,,0.00,weatherlink.com 1.10,2013-04-15 21:05:00,
2013-04-15 17:20:00,56.6,36.0,30.31,SSE,149,1.0,-999.0,46,-99.99,,,0.00,weatherlink.com 1.10,2013-04-15 21:20:00,
2013-04-15 17:35:00,56.6,36.0,30.32,South,182,0.0,-999.0,47,-99.99,,,0.00,weatherlink.com 1.10,2013-04-15 21:35:00,
2013-04-15 17:50:00,56.3,36.0,30.32,SSE,157,4.0,-999.0,46,-99.99,,,0.00,weatherlink.com 1.10,2013-04-15 21:50:00,
2013-04-15 18:06:00,55.9,36.0,30.33,SSE,153,0.0,-999.0,47,-99.99,,,0.00,weatherlink.com 1.10,2013-04-15 22:06:00,
2013-04-15 18:21:00,55.4,35.0,30.34,South,172,0.0,-999.0,47,-99.99,,,0.00,weatherlink.com 1.10,2013-04-15 22:21:00,
2013-04-15 18:36:00,54.4,35.0,30.34,South,171,1.0,-999.0,48,-99.99,,,0.00,weatherlink.com 1.10,2013-04-15 22:36:00,
2013-04-15 18:51:00,53.6,35.0,30.34,SE,135,0.0,-999.0,49,-99.99,,,0.00,weatherlink.com 1.10,2013-04-15 22:51:00,
2013-04-15 19:06:00,53.1,35.0,30.33,SSE,159,0.0,-999.0,50,-99.99,,,0.00,weatherlink.com 1.10,2013-04-15 23:06:00,
2013-04-15 19:21:00,52.6,35.0,30.34,South,171,0.0,-999.0,51,-99.99,,,0.00,weatherlink.com 1.10,2013-04-15 23:21:00,
2013-04-15 19:36:00,52.1,33.0,30.34,South,169,0.0,-999.0,49,-99.99,,,0.00,weatherlink.com 1.10,2013-04-15 23:36:00,
2013-04-15 19:51:00,51.5,33.0,30.35,SSE,165,0.0,-999.0,50,-99.99,,,0.00,weatherlink.com 1.10,2013-04-15 23:51:00,
2013-04-15 20:06:00,50.8,34.0,30.36,SSE,165,0.0,-999.0,53,-99.99,,,0.00,weatherlink.com 1.10,2013-04-16 00:06:00,
2013-04-15 20:21:00,50.3,34.0,30.36,South,179,0.0,-999.0,55,-99.99,,,0.00,weatherlink.com 1.10,2013-04-16 00:21:00,
2013-04-15 20:36:00,49.9,34.0,30.36,SSE,163,0.0,-999.0,55,-99.99,,,0.00,weatherlink.com 1.10,2013-04-16 00:36:00,
2013-04-15 20:51:00,49.5,35.0,30.36,SSE,150,5.0,-999.0,57,-99.99,,,0.00,weatherlink.com 1.10,2013-04-16 00:51:00,
2013-04-15 21:06:00,49.2,34.0,30.37,South,173,0.0,-999.0,57,-99.99,,,0.00,weatherlink.com 1.10,2013-04-16 01:06:00,
2013-04-15 21:22:00,48.7,34.0,30.38,South,173,0.0,-999.0,58,-99.99,,,0.00,weatherlink.com 1.10,2013-04-16 01:22:00,
2013-04-15 21:37:00,48.3,34.0,30.38,SSE,159,0.0,-999.0,59,-99.99,,,0.00,weatherlink.com 1.10,2013-04-16 01:37:00,
2013-04-15 21:52:00,48.0,35.0,30.39,SSE,159,0.0,-999.0,60,-99.99,,,0.00,weatherlink.com 1.10,2013-04-16 01:52:00,
2013-04-15 22:07:00,47.8,35.0,30.39,SSE,159,0.0,-999.0,61,-99.99,,,0.00,weatherlink.com 1.10,2013-04-16 02:07:00,
2013-04-15 22:22:00,47.4,35.0,30.39,SSE,161,0.0,-999.0,63,-99.99,,,0.00,weatherlink.com 1.10,2013-04-16 02:22:00,
2013-04-15 22:37:00,47.0,35.0,30.39,SSE,155,0.0,-999.0,63,-99.99,,,0.00,weatherlink.com 1.10,2013-04-16 02:37:00,